Time;durP1;ratioP1;P1;durP2;ratioP2;P2;SDS_P1;SDS_P2;PMS_P1;PMS_P2;Temp;Humidity;BMP_temperature;BMP_pressure;BME280_temperature;BME280_humidity;BME280_pressure;Samples;Min_cycle;Max_cycle;Signal;HPM_P1;HPM_P2
2024/04/05 00:17:51;914058.00;3.05;1580.82;0.00;0.00;0.62;;;;;16.70;1.00;;;;;;2309539;41;3520;-88
2024/04/05 00:30:35;494740.00;1.65;852.77;0.00;0.00;0.62;;;;;16.80;1.00;;;;;;2272726;40;3519;-88
2024/04/05 00:40:46;7920.00;0.03;14.35;0.00;0.00;0.62;;;;;17.00;1.00;;;;;;2313826;56;1766;-86
2024/04/05 00:43:12;376542.00;1.26;649.48;0.00;0.00;0.62;;;;;17.00;1.00;;;;;;2283942;41;3573;-88
2024/04/05 00:45:40;318913.00;1.06;550.43;10264.00;0.03;18.41;;;;;16.90;1.00;;;;;;2292944;56;3751;-86
2024/04/05 00:48:07;382266.00;1.27;659.32;0.00;0.00;0.62;;;;;17.00;1.00;;;;;;2281241;41;3509;-88
2024/04/05 00:50:35;301036.00;1.00;519.70;0.00;0.00;0.62;;;;;16.90;1.00;;;;;;2275406;56;3748;-88
2024/04/05 00:53:03;112646.00;0.38;195.40;0.00;0.00;0.62;;;;;16.80;1.00;;;;;;2268714;61;1640;-87
2024/04/05 00:55:31;150505.00;0.50;260.68;0.00;0.00;0.62;;;;;16.80;1.00;;;;;;2269967;56;3761;-88
2024/04/05 00:58:01;232887.00;0.78;402.52;0.00;0.00;0.62;;;;;16.70;1.00;;;;;;2274490;56;3779;-86
2024/04/05 01:03:00;825141.00;2.75;1425.01;37317.00;0.12;65.25;;;;;16.60;1.00;;;;;;2279802;56;3619;-87
2024/04/05 01:06:04;265220.00;0.88;458.12;0.00;0.00;0.62;;;;;16.60;1.00;;;;;;2272815;61;414;-90
2024/04/05 01:11:06;564450.00;1.88;972.87;28889.00;0.10;50.66;;;;;16.70;1.00;;;;;;2271840;56;1726;-87
2024/04/05 01:13:33;477548.00;1.59;823.18;0.00;0.00;0.62;;;;;16.70;1.00;;;;;;2278296;40;3586;-87
2024/04/05 01:16:04;513168.00;1.71;884.50;0.00;0.00;0.62;;;;;16.80;1.00;;;;;;2339873;56;3733;-86
2024/04/05 01:18:30;184313.00;0.61;318.92;0.00;0.00;0.62;;;;;16.80;1.00;;;;;;2272847;56;3762;-86
2024/04/05 01:21:00;480405.00;1.60;828.09;0.00;0.00;0.62;;;;;16.80;1.00;;;;;;2267396;61;1069;-86
2024/04/05 01:23:28;509365.00;1.70;877.95;0.00;0.00;0.62;;;;;16.60;1.00;;;;;;2283014;56;3809;-85
2024/04/05 01:25:57;281259.00;0.94;485.70;0.00;0.00;0.62;;;;;15.80;1.00;;;;;;2342269;40;3801;-85
2024/04/05 01:28:23;352520.00;1.18;608.19;0.00;0.00;0.62;;;;;15.70;1.80;;;;;;2263958;61;2035;-87
2024/04/05 01:30:50;464541.00;1.55;800.80;0.00;0.00;0.62;;;;;15.40;2.70;;;;;;2286597;56;3757;-86
2024/04/05 01:33:16;278018.00;0.93;480.13;0.00;0.00;0.62;;;;;15.60;2.80;;;;;;2273310;40;3607;-85
2024/04/05 01:35:43;503844.00;1.68;868.44;0.00;0.00;0.62;;;;;15.60;2.70;;;;;;2299231;56;3775;-88
2024/04/05 01:38:08;687396.00;2.29;1185.39;24421.00;0.08;42.93;;;;;15.80;1.60;;;;;;2279014;56;3727;-85
2024/04/05 01:40:35;483652.00;1.61;833.68;48253.00;0.16;84.16;;;;;16.10;1.00;;;;;;2284779;40;3604;-87
2024/04/05 01:43:03;388548.00;1.30;670.12;0.00;0.00;0.62;;;;;16.10;1.00;;;;;;2276455;40;3592;-85
2024/04/05 01:45:30;537185.00;1.79;925.87;63218.00;0.21;110.04;;;;;15.80;1.00;;;;;;2268412;61;977;-86
2024/04/05 01:47:56;338376.00;1.13;583.88;0.00;0.00;0.62;;;;;15.80;1.00;;;;;;2268364;61;1911;-87
2024/04/05 01:50:23;383174.00;1.28;660.88;0.00;0.00;0.62;;;;;15.70;1.00;;;;;;2279238;56;3761;-87
2024/04/05 01:52:49;423609.00;1.41;730.40;30297.00;0.10;53.10;;;;;15.70;1.00;;;;;;2272700;61;980;-86
2024/04/05 01:55:15;296094.00;0.99;511.21;0.00;0.00;0.62;;;;;15.70;1.00;;;;;;2272589;61;1126;-86
2024/04/05 01:57:41;497762.00;1.66;857.97;0.00;0.00;0.62;;;;;15.90;1.00;;;;;;2272555;61;1269;-87
2024/04/05 02:00:11;443151.00;1.48;764.00;0.00;0.00;0.62;;;;;16.00;1.00;;;;;;2272622;61;1111;-86
2024/04/05 02:02:37;386978.00;1.29;667.42;0.00;0.00;0.62;;;;;16.00;1.00;;;;;;2272669;61;1005;-86
2024/04/05 02:05:04;476746.00;1.59;821.80;27566.00;0.09;48.37;;;;;16.10;1.00;;;;;;2272580;61;973;-86
2024/04/05 02:07:30;436578.00;1.46;752.70;14946.00;0.05;26.52;;;;;16.00;1.00;;;;;;2272637;61;2010;-87
2024/04/05 02:09:57;335440.00;1.12;578.84;0.00;0.00;0.62;;;;;15.90;1.00;;;;;;2272619;61;1054;-86
2024/04/05 02:12:27;392172.00;1.31;676.35;0.00;0.00;0.62;;;;;15.70;1.00;;;;;;2272646;61;914;-85
2024/04/05 02:14:53;170504.00;0.57;295.13;0.00;0.00;0.62;;;;;15.60;1.00;;;;;;2272600;61;1110;-86
2024/04/05 02:17:21;583828.00;1.95;1006.30;7536.00;0.03;13.68;;;;;15.40;1.70;;;;;;2272415;61;1427;-86
2024/04/05 02:19:48;445298.00;1.48;767.70;37269.00;0.12;65.16;;;;;15.20;2.60;;;;;;2272593;61;1068;-86
2024/04/05 02:22:14;314880.00;1.05;543.50;0.00;0.00;0.62;;;;;14.90;4.40;;;;;;2272542;61;1727;-87
2024/04/05 02:24:41;365101.00;1.22;629.82;1528.00;0.01;3.27;;;;;14.90;4.60;;;;;;2272579;61;1630;-87
2024/04/05 02:27:07;348935.00;1.16;602.03;0.00;0.00;0.62;;;;;15.20;2.60;;;;;;2272408;61;1915;-86
2024/04/05 02:29:34;397453.00;1.32;685.43;0.00;0.00;0.62;;;;;15.40;2.70;;;;;;2272430;61;990;-85
2024/04/05 02:32:00;361157.00;1.20;623.04;25176.00;0.08;44.23;;;;;15.60;1.80;;;;;;2272364;61;1030;-86
2024/04/05 02:34:28;367631.00;1.23;634.16;0.00;0.00;0.62;;;;;15.60;1.10;;;;;;2272476;61;1559;-86
2024/04/05 02:36:54;477786.00;1.59;823.59;46556.00;0.16;81.23;;;;;15.70;1.60;;;;;;2272384;61;1302;-85
2024/04/05 02:39:21;327718.00;1.09;565.56;0.00;0.00;0.62;;;;;15.70;1.00;;;;;;2272534;61;1113;-87
2024/04/05 02:41:47;554883.00;1.85;956.38;34642.00;0.12;60.62;;;;;15.80;1.00;;;;;;2272532;61;1095;-86
2024/04/05 02:44:14;384953.00;1.28;663.94;0.00;0.00;0.62;;;;;15.80;1.00;;;;;;2272436;61;1095;-86
2024/04/05 02:46:40;196211.00;0.65;339.40;0.00;0.00;0.62;;;;;15.90;1.00;;;;;;2272657;61;1384;-85
2024/04/05 02:49:08;398755.00;1.33;687.66;12133.00;0.04;21.64;;;;;15.90;1.00;;;;;;2272397;61;1936;-86
2024/04/05 02:51:35;266820.00;0.89;460.88;0.00;0.00;0.62;;;;;15.60;1.00;;;;;;2272315;61;1148;-87
2024/04/05 02:54:02;283406.00;0.94;489.39;0.00;0.00;0.62;;;;;15.40;1.00;;;;;;2272535;61;1074;-86
2024/04/05 02:56:28;250546.00;0.84;432.89;0.00;0.00;0.62;;;;;15.40;1.00;;;;;;2272439;61;1278;-87
2024/04/05 02:58:56;439552.00;1.47;757.81;0.00;0.00;0.62;;;;;15.20;1.30;;;;;;2272474;61;1045;-87
2024/04/05 03:01:22;177713.00;0.59;307.55;0.00;0.00;0.62;;;;;15.00;2.50;;;;;;2272540;61;1037;-86
2024/04/05 03:03:50;278351.00;0.93;480.70;0.00;0.00;0.62;;;;;15.00;2.40;;;;;;2272415;61;930;-85
2024/04/05 03:06:16;203880.00;0.68;352.60;0.00;0.00;0.62;;;;;14.60;3.40;;;;;;2272442;61;1579;-85
2024/04/05 03:08:44;472364.00;1.57;814.26;0.00;0.00;0.62;;;;;14.60;4.20;;;;;;2272331;61;1913;-85
2024/04/05 03:11:10;252556.00;0.84;436.35;0.00;0.00;0.62;;;;;14.80;3.60;;;;;;2272476;61;1003;-85
2024/04/05 03:13:37;296204.00;0.99;511.39;0.00;0.00;0.62;;;;;15.00;2.50;;;;;;2272376;61;1062;-86
2024/04/05 03:16:04;212862.00;0.71;368.06;0.00;0.00;0.62;;;;;15.20;2.30;;;;;;2272354;61;1278;-85
2024/04/05 03:18:31;457682.00;1.53;789.00;0.00;0.00;0.62;;;;;15.20;1.40;;;;;;2272440;61;964;-86
2024/04/05 03:20:57;162924.00;0.54;282.08;14813.00;0.05;26.29;;;;;15.40;1.00;;;;;;2272361;61;1095;-86
2024/04/05 03:23:24;280780.00;0.94;484.88;0.00;0.00;0.62;;;;;15.30;1.50;;;;;;2272412;61;1058;-86
2024/04/05 03:25:51;236229.00;0.79;408.26;0.00;0.00;0.62;;;;;15.40;1.00;;;;;;2272369;61;999;-85
2024/04/05 03:28:18;429457.00;1.43;740.45;12707.00;0.04;22.64;;;;;15.50;1.00;;;;;;2272314;61;1918;-85
2024/04/05 03:30:44;321066.00;1.07;554.13;0.00;0.00;0.62;;;;;15.60;1.00;;;;;;2272338;61;984;-85
2024/04/05 03:33:11;448301.00;1.49;772.86;15662.00;0.05;27.76;;;;;15.50;1.00;;;;;;2272285;61;1041;-84
2024/04/05 03:35:37;369876.00;1.23;638.02;38946.00;0.13;68.06;;;;;15.50;1.00;;;;;;2272397;61;1067;-86
2024/04/05 03:38:04;286885.00;0.96;495.37;0.00;0.00;0.62;;;;;15.50;1.00;;;;;;2272352;61;1285;-85
2024/04/05 03:40:31;286798.00;0.96;495.22;0.00;0.00;0.62;;;;;15.50;1.00;;;;;;2272476;61;1145;-86
2024/04/05 03:42:59;252479.00;0.84;436.21;0.00;0.00;0.62;;;;;15.60;1.00;;;;;;2272400;61;1049;-85
2024/04/05 03:45:25;172594.00;0.58;298.73;0.00;0.00;0.62;;;;;15.50;1.00;;;;;;2272426;61;1090;-85
2024/04/05 03:47:52;300043.00;1.00;517.99;0.00;0.00;0.62;;;;;15.40;1.00;;;;;;2272318;61;2001;-86
2024/04/05 03:50:18;245942.00;0.82;424.97;0.00;0.00;0.62;;;;;15.40;1.00;;;;;;2272193;61;1025;-85
2024/04/05 03:52:45;287350.00;0.96;496.17;0.00;0.00;0.62;;;;;15.60;1.00;;;;;;2272432;61;1066;-86
2024/04/05 03:55:11;587582.00;1.96;1012.78;64163.00;0.21;111.67;;;;;15.50;1.00;;;;;;2272475;61;1001;-86
2024/04/05 03:57:40;190711.00;0.64;329.93;0.00;0.00;0.62;;;;;15.50;1.00;;;;;;2272398;61;1373;-85
2024/04/05 04:00:08;340502.00;1.14;587.54;0.00;0.00;0.62;;;;;15.30;1.00;;;;;;2272360;61;1063;-85
2024/04/05 04:02:35;255947.00;0.85;442.18;0.00;0.00;0.62;;;;;15.40;1.00;;;;;;2272278;61;1061;-85
2024/04/05 04:05:01;269481.00;0.90;465.45;0.00;0.00;0.62;;;;;15.40;1.00;;;;;;2272389;61;1016;-84
2024/04/05 04:07:28;295090.00;0.98;509.48;0.00;0.00;0.62;;;;;15.50;1.00;;;;;;2272343;61;2016;-85
2024/04/05 04:09:53;344797.00;1.15;594.92;0.00;0.00;0.62;;;;;15.50;1.00;;;;;;2272393;61;1070;-85
2024/04/05 04:12:20;271994.00;0.91;469.77;0.00;0.00;0.62;;;;;15.20;1.00;;;;;;2272357;61;1090;-85
2024/04/05 04:14:46;218007.00;0.73;376.91;0.00;0.00;0.62;;;;;14.90;1.60;;;;;;2272410;61;1062;-86
2024/04/05 04:17:15;308545.00;1.03;532.61;0.00;0.00;0.62;;;;;14.40;3.30;;;;;;2272288;61;1398;-85
2024/04/05 04:19:41;293223.00;0.98;506.27;0.00;0.00;0.62;;;;;14.00;5.30;;;;;;2272359;61;1579;-86
2024/04/05 04:22:09;508334.00;1.69;876.17;0.00;0.00;0.62;;;;;14.30;5.40;;;;;;2272395;61;997;-85
2024/04/05 04:24:35;179764.00;0.60;311.08;0.00;0.00;0.62;;;;;14.60;3.90;;;;;;2272378;61;1056;-84
2024/04/05 04:27:02;187000.00;0.62;323.54;7315.00;0.02;13.30;;;;;14.60;2.80;;;;;;2272289;61;1427;-85
2024/04/05 04:29:30;392550.00;1.31;677.00;17201.00;0.06;30.42;;;;;14.60;2.60;;;;;;2272301;61;1982;-85
2024/04/05 04:31:57;208626.00;0.70;360.77;0.00;0.00;0.62;;;;;14.80;2.40;;;;;;2272315;61;1075;-85
2024/04/05 04:34:24;267282.00;0.89;461.67;0.00;0.00;0.62;;;;;14.90;2.20;;;;;;2272291;61;1036;-85
2024/04/05 04:36:51;324886.00;1.08;560.70;0.00;0.00;0.62;;;;;14.80;1.90;;;;;;2272145;61;2019;-84
2024/04/05 04:39:17;228225.00;0.76;394.50;0.00;0.00;0.62;;;;;14.80;2.30;;;;;;2272306;61;2108;-85
2024/04/05 04:41:44;215611.00;0.72;372.79;0.00;0.00;0.62;;;;;14.70;2.20;;;;;;2272290;61;1070;-84
2024/04/05 04:44:10;217922.00;0.73;376.77;0.00;0.00;0.62;;;;;14.70;2.20;;;;;;2272329;61;1051;-84
2024/04/05 04:46:37;257640.00;0.86;445.09;0.00;0.00;0.62;;;;;14.70;2.20;;;;;;2272271;61;1296;-85
2024/04/05 04:49:03;248681.00;0.83;429.68;50238.00;0.17;87.60;;;;;14.80;2.00;;;;;;2272283;61;1998;-84
2024/04/05 04:51:31;307630.00;1.03;531.04;0.00;0.00;0.62;;;;;14.80;2.20;;;;;;2272224;61;1110;-85
2024/04/05 04:53:57;301512.00;1.01;520.52;0.00;0.00;0.62;;;;;14.90;2.10;;;;;;2272302;61;1113;-85
2024/04/05 04:56:30;328444.00;1.09;566.81;0.00;0.00;0.62;;;;;15.00;1.50;;;;;;2272283;61;1420;-84
2024/04/05 04:58:56;336545.00;1.12;580.74;21069.00;0.07;37.12;;;;;15.00;2.10;;;;;;2272264;61;1404;-85
2024/04/05 05:01:23;57810.00;0.19;100.69;0.00;0.00;0.62;;;;;15.10;1.70;;;;;;2272330;61;1064;-86
2024/04/05 05:03:49;55084.00;0.18;95.98;0.00;0.00;0.62;;;;;15.10;1.00;;;;;;2273025;61;920;-85
2024/04/05 05:06:18;105436.00;0.35;182.95;0.00;0.00;0.62;;;;;15.10;1.00;;;;;;2272915;61;1320;-86
2024/04/05 05:08:45;85932.00;0.29;149.28;0.00;0.00;0.62;;;;;15.00;1.10;;;;;;2272885;61;1917;-85
2024/04/05 05:11:12;53637.00;0.18;93.48;0.00;0.00;0.62;;;;;15.00;1.50;;;;;;2272879;61;1029;-85
2024/04/05 05:13:38;102927.00;0.34;178.62;15596.00;0.05;27.64;;;;;15.10;1.00;;;;;;2272863;61;1802;-84
2024/04/05 05:16:05;105317.00;0.35;182.75;33972.00;0.11;59.46;;;;;15.10;1.00;;;;;;2272866;61;1284;-85
2024/04/05 05:18:31;0.00;0.00;0.62;0.00;0.00;0.62;;;;;15.10;1.20;;;;;;2272806;61;1276;-85
2024/04/05 05:20:59;33068.00;0.11;57.89;0.00;0.00;0.62;;;;;15.10;1.00;;;;;;2272813;61;1613;-86
2024/04/05 05:23:25;0.00;0.00;0.62;0.00;0.00;0.62;;;;;15.00;1.50;;;;;;2272828;61;1092;-86
2024/04/05 05:25:53;229762.00;0.77;397.14;46202.00;0.15;80.62;;;;;15.10;1.10;;;;;;2272872;61;2044;-85
2024/04/05 05:28:19;0.00;0.00;0.62;0.00;0.00;0.62;;;;;15.10;1.40;;;;;;2272706;61;1927;-84
2024/04/05 05:30:46;66302.00;0.22;115.37;0.00;0.00;0.62;;;;;15.30;1.00;;;;;;2272777;61;1173;-85
2024/04/05 05:33:12;0.00;0.00;0.62;0.00;0.00;0.62;;;;;15.20;1.00;;;;;;2272898;61;1129;-86
2024/04/05 05:35:38;93496.00;0.31;162.34;0.00;0.00;0.62;;;;;15.30;1.10;;;;;;2272783;61;1109;-85
2024/04/05 05:38:04;135233.00;0.45;234.35;40141.00;0.13;70.13;;;;;15.30;1.00;;;;;;2272699;61;1281;-84
2024/04/05 05:40:31;56420.00;0.19;98.29;0.00;0.00;0.62;;;;;15.10;2.30;;;;;;2272813;61;1035;-85
2024/04/05 05:42:58;144265.00;0.48;249.92;0.00;0.00;0.62;;;;;15.30;1.10;;;;;;2272760;61;940;-85
2024/04/05 05:45:25;134620.00;0.45;233.30;0.00;0.00;0.62;;;;;15.40;1.30;;;;;;2272933;61;1026;-86
2024/04/05 05:47:52;55056.00;0.18;95.93;0.00;0.00;0.62;;;;;15.40;2.70;;;;;;2272845;61;2025;-86
2024/04/05 05:50:19;329321.00;1.10;568.32;0.00;0.00;0.62;;;;;15.60;1.70;;;;;;2272667;61;1030;-85
2024/04/05 05:52:45;265333.00;0.88;458.32;70205.00;0.23;122.11;;;;;15.70;1.00;;;;;;2272931;61;1082;-84
2024/04/05 05:55:12;336641.00;1.12;580.90;0.00;0.00;0.62;;;;;15.70;1.50;;;;;;2272756;61;1086;-84
2024/04/05 05:57:38;181967.00;0.61;314.88;0.00;0.00;0.62;;;;;15.60;1.00;;;;;;2272739;61;1367;-84
2024/04/05 06:00:09;359682.00;1.20;620.50;0.00;0.00;0.62;;;;;15.50;1.50;;;;;;2272768;61;1066;-84
2024/04/05 06:02:37;189723.00;0.63;328.23;0.00;0.00;0.62;;;;;15.80;1.00;;;;;;2272812;61;1055;-84
2024/04/05 06:05:04;182012.00;0.61;314.95;17740.00;0.06;31.36;;;;;16.00;1.30;;;;;;2272787;61;1066;-84
2024/04/05 06:07:30;3991.00;0.01;7.54;0.00;0.00;0.62;;;;;16.60;7.50;;;;;;2272603;61;2006;-84
2024/04/05 06:09:58;238622.00;0.80;412.38;40415.00;0.13;70.61;;;;;17.60;4.40;;;;;;2272776;61;1085;-83
2024/04/05 06:12:25;119266.00;0.40;206.82;0.00;0.00;0.62;;;;;18.60;4.30;;;;;;2272770;61;1109;-84
2024/04/05 06:14:54;103329.00;0.34;179.32;0.00;0.00;0.62;;;;;19.80;1.00;;;;;;2272507;61;1167;-85
2024/04/05 06:17:22;136496.00;0.45;236.53;0.00;0.00;0.62;;;;;21.10;1.00;;;;;;2272424;61;1425;-85
2024/04/05 06:19:53;61283.00;0.20;106.69;0.00;0.00;0.62;;;;;22.50;1.00;;;;;;2272612;61;1644;-85
2024/04/05 06:22:19;0.00;0.00;0.62;0.00;0.00;0.62;;;;;23.50;1.00;;;;;;2272658;61;1035;-84
2024/04/05 06:24:50;164992.00;0.55;285.64;0.00;0.00;0.62;;;;;23.50;1.00;;;;;;2272642;61;1036;-84
2024/04/05 06:27:16;0.00;0.00;0.62;0.00;0.00;0.62;;;;;23.40;1.00;;;;;;2272459;61;1360;-86
2024/04/05 06:29:43;62367.00;0.21;108.57;0.00;0.00;0.62;;;;;23.70;1.00;;;;;;2272550;61;2019;-85
2024/04/05 06:32:09;0.00;0.00;0.62;0.00;0.00;0.62;;;;;24.60;1.00;;;;;;2272704;61;1304;-86
2024/04/05 06:34:41;129610.00;0.43;224.66;0.00;0.00;0.62;;;;;24.50;1.00;;;;;;2272573;61;1152;-85
2024/04/05 06:37:06;7391.00;0.02;13.43;0.00;0.00;0.62;;;;;24.70;1.00;;;;;;2272041;61;1456;-86
2024/04/05 06:39:33;0.00;0.00;0.62;0.00;0.00;0.62;;;;;25.20;1.00;;;;;;2272696;61;1066;-86
2024/04/05 06:41:59;40008.00;0.13;69.90;0.00;0.00;0.62;;;;;25.70;1.00;;;;;;2272448;61;1123;-87
2024/04/05 06:44:31;44972.00;0.15;78.49;0.00;0.00;0.62;;;;;26.00;1.00;;;;;;2272697;61;936;-85
2024/04/05 06:46:57;0.00;0.00;0.62;0.00;0.00;0.62;;;;;26.10;1.00;;;;;;2272595;61;1475;-85
2024/04/05 06:49:24;237419.00;0.79;410.31;42733.00;0.14;74.62;;;;;26.50;1.00;;;;;;2272519;61;2006;-85
2024/04/05 06:51:51;0.00;0.00;0.62;0.00;0.00;0.62;;;;;26.40;1.00;;;;;;2272303;61;1094;-84
2024/04/05 06:54:18;64001.00;0.21;111.39;0.00;0.00;0.62;;;;;26.90;1.00;;;;;;2272521;61;1053;-85
2024/04/05 06:56:44;72071.00;0.24;125.34;0.00;0.00;0.62;;;;;26.80;1.00;;;;;;2272539;61;1322;-85
2024/04/05 06:59:11;6642.00;0.02;12.13;0.00;0.00;0.62;;;;;26.30;1.00;;;;;;2272449;61;2254;-86
2024/04/05 07:01:36;0.00;0.00;0.62;0.00;0.00;0.62;;;;;25.90;1.00;;;;;;2272454;61;2028;-86
2024/04/05 07:04:05;16789.00;0.06;29.71;0.00;0.00;0.62;;;;;25.20;1.00;;;;;;2272523;61;1062;-85
2024/04/05 07:06:32;0.00;0.00;0.62;0.00;0.00;0.62;;;;;24.50;1.00;;;;;;2272505;61;1316;-86
2024/04/05 07:09:02;418598.00;1.40;721.78;50154.00;0.17;87.45;;;;;24.20;1.00;;;;;;2272391;61;2005;-86
2024/04/05 07:11:28;74.00;0.00;0.75;0.00;0.00;0.62;;;;;24.50;1.00;;;;;;2272448;61;1043;-86
2024/04/05 07:13:55;0.00;0.00;0.62;0.00;0.00;0.62;;;;;24.90;1.00;;;;;;2272327;61;1022;-86
2024/04/05 07:16:21;44783.00;0.15;78.16;0.00;0.00;0.62;;;;;25.10;1.00;;;;;;2272250;61;1307;-85
2024/04/05 07:18:48;98789.00;0.33;171.48;0.00;0.00;0.62;;;;;25.40;1.00;;;;;;2272322;61;2370;-85
2024/04/05 07:21:16;310639.00;1.04;536.21;62815.00;0.21;109.34;;;;;25.40;1.00;;;;;;2272509;61;1119;-84
2024/04/05 07:23:42;0.00;0.00;0.62;0.00;0.00;0.62;;;;;24.60;1.00;;;;;;2272332;61;1019;-85
2024/04/05 07:26:10;0.00;0.00;0.62;0.00;0.00;0.62;;;;;24.60;1.00;;;;;;2272203;61;1392;-84
2024/04/05 07:28:36;112409.00;0.37;194.99;38706.00;0.13;67.65;;;;;24.10;1.00;;;;;;2272312;61;2006;-84
2024/04/05 07:31:03;23511.00;0.08;41.35;0.00;0.00;0.62;;;;;23.90;1.00;;;;;;2272429;61;1114;-85
2024/04/05 07:33:30;71989.00;0.24;125.20;0.00;0.00;0.62;;;;;24.00;1.00;;;;;;2272393;61;1055;-84
2024/04/05 07:35:56;0.00;0.00;0.62;0.00;0.00;0.62;;;;;23.50;1.00;;;;;;2272545;61;1114;-85
2024/04/05 07:38:25;20281.00;0.07;35.76;0.00;0.00;0.62;;;;;23.60;1.00;;;;;;2272402;61;1005;-86
2024/04/05 07:40:51;16487.00;0.05;29.19;0.00;0.00;0.62;;;;;23.50;1.00;;;;;;2272407;61;1083;-85
2024/04/05 07:43:19;11097.00;0.04;19.85;0.00;0.00;0.62;;;;;24.20;1.00;;;;;;2272420;61;1129;-85
2024/04/05 07:45:45;0.00;0.00;0.62;0.00;0.00;0.62;;;;;24.50;1.00;;;;;;2272217;61;928;-86
2024/04/05 07:48:14;0.00;0.00;0.62;0.00;0.00;0.62;;;;;24.50;1.00;;;;;;2271852;61;1935;-85
2024/04/05 07:50:40;126321.00;0.42;218.98;60441.00;0.20;105.24;;;;;24.40;1.00;;;;;;2272144;61;1054;-86
2024/04/05 07:53:07;160941.00;0.54;278.66;0.00;0.00;0.62;;;;;24.30;1.00;;;;;;2272225;61;1075;-86
2024/04/05 07:55:33;10283.00;0.03;18.44;0.00;0.00;0.62;;;;;24.60;1.00;;;;;;2272378;61;1128;-86
2024/04/05 07:57:59;62729.00;0.21;109.19;0.00;0.00;0.62;;;;;24.40;1.00;;;;;;2272158;61;1404;-84
2024/04/05 08:00:27;103799.00;0.35;180.13;38614.00;0.13;67.49;;;;;25.10;1.00;;;;;;2272209;61;1109;-84
2024/04/05 08:02:53;218914.00;0.73;378.47;84710.00;0.28;147.17;;;;;25.50;1.00;;;;;;2272071;61;1118;-85
2024/04/05 08:05:19;75627.00;0.25;131.48;0.00;0.00;0.62;;;;;25.80;1.00;;;;;;2272154;61;1672;-85
2024/04/05 08:07:46;348281.00;1.16;600.91;97133.00;0.32;168.62;;;;;25.60;1.00;;;;;;2272073;61;1286;-85
2024/04/05 08:10:12;91800.00;0.31;159.42;26834.00;0.09;47.10;;;;;25.90;1.00;;;;;;2272179;61;1947;-85
2024/04/05 08:12:40;0.00;0.00;0.62;0.00;0.00;0.62;;;;;25.90;1.00;;;;;;2271841;61;1008;-86
2024/04/05 08:15:09;46950.00;0.16;81.91;0.00;0.00;0.62;;;;;25.50;1.00;;;;;;2271750;61;1054;-86
2024/04/05 08:17:37;99679.00;0.33;173.02;33573.00;0.11;58.77;;;;;26.20;1.00;;;;;;2272007;61;1242;-86
2024/04/05 08:20:04;92120.00;0.31;159.97;0.00;0.00;0.62;;;;;26.40;1.00;;;;;;2272304;61;1139;-85
2024/04/05 08:22:32;26846.00;0.09;47.12;0.00;0.00;0.62;;;;;26.70;1.00;;;;;;2272095;61;1097;-85
2024/04/05 08:24:58;52322.00;0.17;91.20;0.00;0.00;0.62;;;;;27.30;1.00;;;;;;2272203;61;1121;-86
2024/04/05 08:27:25;0.00;0.00;0.62;0.00;0.00;0.62;;;;;27.40;1.00;;;;;;2272109;61;1889;-87
2024/04/05 08:29:51;12900.00;0.04;22.97;0.00;0.00;0.62;;;;;28.00;1.00;;;;;;2272004;61;2019;-85
2024/04/05 08:32:18;200500.00;0.67;346.78;60110.00;0.20;104.67;;;;;27.50;1.00;;;;;;2272103;61;1101;-85
2024/04/05 08:34:45;139104.00;0.46;241.03;56763.00;0.19;98.88;;;;;27.30;1.00;;;;;;2272466;61;932;-86
2024/04/05 08:37:12;110072.00;0.37;190.95;44637.00;0.15;77.91;;;;;27.20;1.00;;;;;;2272242;61;1406;-86
2024/04/05 08:39:38;79236.00;0.26;137.72;0.00;0.00;0.62;;;;;27.20;1.00;;;;;;2272295;61;1138;-86
2024/04/05 08:42:11;0.00;0.00;0.62;0.00;0.00;0.62;;;;;27.40;1.00;;;;;;2272322;61;1046;-86
2024/04/05 08:44:38;703.00;0.00;1.84;0.00;0.00;0.62;;;;;27.10;1.00;;;;;;2272234;61;1075;-85
2024/04/05 08:47:08;32145.00;0.11;56.30;0.00;0.00;0.62;;;;;26.70;1.00;;;;;;2272191;61;1402;-85
2024/04/05 08:49:34;100107.00;0.33;173.76;0.00;0.00;0.62;;;;;26.50;1.00;;;;;;2272268;61;2014;-85
2024/04/05 08:52:03;13993.00;0.05;24.87;0.00;0.00;0.62;;;;;26.10;1.00;;;;;;2272187;61;1045;-85
2024/04/05 08:54:30;1319.00;0.00;2.91;0.00;0.00;0.62;;;;;25.70;1.00;;;;;;2271931;61;1106;-86
2024/04/05 08:56:58;0.00;0.00;0.62;0.00;0.00;0.62;;;;;25.90;1.00;;;;;;2272195;61;1392;-85
2024/04/05 08:59:28;219667.00;0.73;379.77;0.00;0.00;0.62;;;;;25.70;1.00;;;;;;2272202;61;1097;-85
2024/04/05 09:01:55;39688.00;0.13;69.35;0.00;0.00;0.62;;;;;25.80;1.00;;;;;;2272240;61;1015;-85
2024/04/05 09:04:21;16390.00;0.05;29.02;0.00;0.00;0.62;;;;;25.50;1.00;;;;;;2272118;61;1118;-86
2024/04/05 09:06:48;96124.00;0.32;166.88;29856.00;0.10;52.33;;;;;25.60;1.00;;;;;;2272096;61;1430;-86
2024/04/05 09:09:26;46954.00;0.16;81.92;0.00;0.00;0.62;;;;;25.10;1.00;;;;;;2272148;61;2018;-85
2024/04/05 09:12:01;0.00;0.00;0.62;0.00;0.00;0.62;;;;;25.10;1.00;;;;;;2272067;61;1016;-85
2024/04/05 09:14:27;0.00;0.00;0.62;0.00;0.00;0.62;;;;;25.20;1.00;;;;;;2272107;61;1165;-84
2024/04/05 09:16:55;93971.00;0.31;163.16;0.00;0.00;0.62;;;;;24.90;1.00;;;;;;2272306;61;1308;-84
2024/04/05 09:19:22;0.00;0.00;0.62;0.00;0.00;0.62;;;;;25.40;1.00;;;;;;2272407;61;1057;-84
2024/04/05 09:21:49;26175.00;0.09;45.96;0.00;0.00;0.62;;;;;25.60;1.00;;;;;;2272236;61;1606;-84
2024/04/05 09:24:15;0.00;0.00;0.62;0.00;0.00;0.62;;;;;25.80;1.00;;;;;;2272201;61;1082;-85
2024/04/05 09:26:45;204447.00;0.68;353.58;52112.00;0.17;90.84;;;;;25.70;1.00;;;;;;2272279;61;1414;-85
2024/04/05 09:29:13;71774.00;0.24;124.83;0.00;0.00;0.62;;;;;25.70;1.00;;;;;;2272219;61;2009;-85
2024/04/05 09:31:41;100759.00;0.34;174.88;0.00;0.00;0.62;;;;;25.90;1.00;;;;;;2272272;61;1399;-86
2024/04/05 09:34:08;52846.00;0.18;92.11;0.00;0.00;0.62;;;;;26.30;1.00;;;;;;2272285;61;1106;-85
2024/04/05 09:36:36;212906.00;0.71;368.14;29489.00;0.10;51.70;;;;;26.30;1.00;;;;;;2272322;61;1427;-86
2024/04/05 09:39:06;0.00;0.00;0.62;0.00;0.00;0.62;;;;;26.30;1.00;;;;;;2272285;61;1130;-85
2024/04/05 09:41:34;86415.00;0.29;150.12;21058.00;0.07;37.10;;;;;26.50;1.00;;;;;;2272189;61;1108;-85
2024/04/05 09:44:04;83526.00;0.28;145.13;0.00;0.00;0.62;;;;;26.30;1.00;;;;;;2272292;61;1118;-87
2024/04/05 09:46:32;0.00;0.00;0.62;0.00;0.00;0.62;;;;;26.20;1.00;;;;;;2272157;61;1301;-87
2024/04/05 09:48:59;10874.00;0.04;19.46;0.00;0.00;0.62;;;;;25.50;1.00;;;;;;2272413;61;2008;-86
2024/04/05 09:51:27;6689.00;0.02;12.21;0.00;0.00;0.62;;;;;25.20;1.00;;;;;;2272954;61;1039;-84
2024/04/05 09:53:54;15762.00;0.05;27.93;0.00;0.00;0.62;;;;;25.50;1.00;;;;;;2272794;61;1050;-85
2024/04/05 09:56:25;172782.00;0.58;299.06;34562.00;0.12;60.48;;;;;25.40;1.00;;;;;;2272677;61;1358;-85
2024/04/05 09:58:54;59779.00;0.20;104.09;0.00;0.00;0.62;;;;;25.40;1.00;;;;;;2272305;61;1102;-85
2024/04/05 10:01:24;464.00;0.00;1.42;0.00;0.00;0.62;;;;;25.30;1.00;;;;;;2272702;61;1097;-85
2024/04/05 10:03:50;39881.00;0.13;69.68;0.00;0.00;0.62;;;;;24.80;1.00;;;;;;2272701;61;1152;-85
2024/04/05 10:06:18;80127.00;0.27;139.26;0.00;0.00;0.62;;;;;24.60;1.00;;;;;;2272571;61;1359;-87
2024/04/05 10:08:44;171319.00;0.57;296.54;0.00;0.00;0.62;;;;;24.90;1.00;;;;;;2272634;61;1927;-86
2024/04/05 10:11:12;36417.00;0.12;63.69;0.00;0.00;0.62;;;;;25.10;1.00;;;;;;2272709;61;1020;-85
2024/04/05 10:13:38;107651.00;0.36;186.78;0.00;0.00;0.62;;;;;25.20;1.00;;;;;;2272764;61;1134;-86
2024/04/05 10:16:05;120053.00;0.40;208.17;0.00;0.00;0.62;;;;;25.50;1.00;;;;;;2272764;61;1299;-85
2024/04/05 10:18:36;15320.00;0.05;27.16;0.00;0.00;0.62;;;;;25.70;1.00;;;;;;2272724;61;964;-86
2024/04/05 10:21:07;47030.00;0.16;82.05;0.00;0.00;0.62;;;;;25.40;1.00;;;;;;2272824;61;1058;-85
2024/04/05 10:23:34;0.00;0.00;0.62;0.00;0.00;0.62;;;;;25.00;1.00;;;;;;2272805;61;1149;-85
2024/04/05 10:26:01;168023.00;0.56;290.86;63753.00;0.21;110.96;;;;;24.80;1.00;;;;;;2272841;61;1395;-85
2024/04/05 10:28:28;361762.00;1.21;624.08;100260.00;0.33;174.02;;;;;24.90;1.00;;;;;;2272735;61;2007;-87
2024/04/05 10:30:55;96675.00;0.32;167.83;22318.00;0.07;39.28;;;;;24.70;1.00;;;;;;2272849;61;1009;-87
2024/04/05 10:33:22;51456.00;0.17;89.70;0.00;0.00;0.62;;;;;24.70;1.00;;;;;;2272849;61;1070;-86
2024/04/05 10:35:50;59217.00;0.20;103.12;0.00;0.00;0.62;;;;;24.90;1.00;;;;;;2272719;61;1001;-86
2024/04/05 10:38:16;67909.00;0.23;118.15;0.00;0.00;0.62;;;;;24.80;1.00;;;;;;2272705;61;1189;-86
2024/04/05 10:40:44;6874.00;0.02;12.53;0.00;0.00;0.62;;;;;24.30;1.00;;;;;;2272723;61;1047;-88
2024/04/05 10:43:11;53871.00;0.18;93.88;0.00;0.00;0.62;;;;;24.30;1.00;;;;;;2272767;61;843;-87